Time;durP1;ratioP1;P1;durP2;ratioP2;P2;SDS_P1;SDS_P2;PMS_P1;PMS_P2;Temp;Humidity;BMP_temperature;BMP_pressure;BME280_temperature;BME280_humidity;BME280_pressure;Samples;Min_cycle;Max_cycle;Signal;HPM_P1;HPM_P2
2023/12/31 00:00:08;;;;;;;15.82;14.52;;;4.00;99.90;;;;;;4916123;29;20700;-38
2023/12/31 00:02:34;;;;;;;15.95;14.45;;;4.00;99.90;;;;;;4915765;29;20582;-38
2023/12/31 00:04:59;;;;;;;16.23;14.80;;;4.00;99.90;;;;;;4912512;29;20220;-37
2023/12/31 00:07:26;;;;;;;15.50;14.10;;;3.90;99.90;;;;;;4902166;29;20657;-37
2023/12/31 00:09:52;;;;;;;15.90;14.50;;;3.90;99.90;;;;;;4915255;29;20240;-38
2023/12/31 00:12:18;;;;;;;14.83;13.50;;;3.80;99.90;;;;;;4914107;29;20202;-37
2023/12/31 00:14:43;;;;;;;15.40;14.20;;;3.80;99.90;;;;;;4912062;29;20454;-38
2023/12/31 00:17:09;;;;;;;15.00;13.90;;;3.80;99.90;;;;;;4913243;29;20201;-37
2023/12/31 00:19:35;;;;;;;15.27;14.17;;;3.80;99.90;;;;;;4919598;29;20284;-37
2023/12/31 00:22:00;;;;;;;14.97;13.67;;;3.80;99.90;;;;;;4922795;29;21156;-37
2023/12/31 00:24:26;;;;;;;14.90;13.77;;;3.80;99.90;;;;;;4920481;29;20194;-38
2023/12/31 00:26:51;;;;;;;14.10;13.00;;;3.80;99.90;;;;;;4917175;29;20222;-48
2023/12/31 00:29:17;;;;;;;14.20;13.20;;;3.80;99.90;;;;;;4918835;29;20227;-55
2023/12/31 00:31:42;;;;;;;15.23;13.93;;;3.80;99.90;;;;;;4918110;29;20240;-58
2023/12/31 00:34:10;;;;;;;15.47;14.27;;;3.80;99.90;;;;;;4921407;29;20194;-53
2023/12/31 00:36:36;;;;;;;14.32;13.00;;;3.80;99.90;;;;;;4918281;29;20261;-56
2023/12/31 00:39:01;;;;;;;14.70;13.60;;;3.70;99.90;;;;;;4921161;29;20202;-58
2023/12/31 00:41:27;;;;;;;14.73;13.63;;;3.70;99.90;;;;;;4914924;29;20194;-57
2023/12/31 00:43:52;;;;;;;14.83;13.50;;;3.70;99.90;;;;;;4917763;29;20197;-58
2023/12/31 00:46:18;;;;;;;14.70;13.60;;;3.70;99.90;;;;;;4917357;29;20218;-58
2023/12/31 00:48:44;;;;;;;14.00;12.97;;;3.70;99.90;;;;;;4922312;29;20561;-57
2023/12/31 00:51:09;;;;;;;14.83;13.43;;;3.70;99.90;;;;;;4918242;29;20186;-56
2023/12/31 00:53:35;;;;;;;15.13;13.60;;;3.70;99.90;;;;;;4899065;29;20249;-57
2023/12/31 00:56:01;;;;;;;14.10;12.90;;;3.70;99.90;;;;;;4919953;29;20217;-56
2023/12/31 00:58:27;;;;;;;13.50;12.50;;;3.70;99.90;;;;;;4926374;29;20959;-58
2023/12/31 01:00:52;;;;;;;14.10;13.10;;;3.70;99.90;;;;;;4920213;29;20193;-58
2023/12/31 01:03:18;;;;;;;13.63;12.63;;;3.70;99.90;;;;;;4934711;29;20201;-54
2023/12/31 01:05:44;;;;;;;14.32;12.85;;;3.60;99.90;;;;;;4934491;29;20218;-56
2023/12/31 01:08:10;;;;;;;15.10;13.50;;;3.70;99.90;;;;;;4936864;29;20669;-58
2023/12/31 01:10:35;;;;;;;13.77;12.87;;;3.70;99.90;;;;;;4934796;29;20196;-55
2023/12/31 01:13:02;;;;;;;15.00;13.47;;;3.70;99.90;;;;;;4928318;29;20193;-57
2023/12/31 01:15:28;;;;;;;13.85;12.50;;;3.70;99.90;;;;;;4926625;29;20219;-37
2023/12/31 01:17:53;;;;;;;15.10;13.80;;;3.70;99.90;;;;;;4916706;29;20186;-38
2023/12/31 01:20:19;;;;;;;13.53;12.50;;;3.80;99.90;;;;;;4931690;29;20644;-37
2023/12/31 01:22:44;;;;;;;14.70;13.40;;;3.80;99.90;;;;;;4925613;29;20202;-37
2023/12/31 01:25:10;;;;;;;13.37;12.37;;;3.80;99.90;;;;;;4934167;29;20214;-38
2023/12/31 01:27:36;;;;;;;13.00;11.90;;;3.80;99.90;;;;;;4931076;29;20190;-37
2023/12/31 01:30:01;;;;;;;13.33;12.23;;;3.90;99.90;;;;;;4920960;29;20716;-37
2023/12/31 01:32:27;;;;;;;13.83;12.73;;;3.90;99.90;;;;;;4924014;29;20183;-37
2023/12/31 01:34:56;;;;;;;14.07;13.00;;;3.90;99.90;;;;;;4928661;29;20732;-37
2023/12/31 01:37:21;;;;;;;12.23;11.43;;;4.00;99.90;;;;;;4935904;29;20198;-38
2023/12/31 01:39:47;;;;;;;13.13;12.20;;;4.00;99.90;;;;;;4933379;29;20648;-37
2023/12/31 01:42:13;;;;;;;12.93;12.03;;;4.00;99.90;;;;;;4916970;29;20190;-37
2023/12/31 01:44:38;;;;;;;13.63;12.63;;;4.00;99.90;;;;;;4914110;29;20189;-37
2023/12/31 01:47:05;;;;;;;13.93;12.63;;;4.10;99.90;;;;;;4932083;29;20733;-37
2023/12/31 01:49:32;;;;;;;13.65;12.63;;;4.10;99.90;;;;;;4921608;29;20241;-37
2023/12/31 01:51:58;;;;;;;13.43;12.55;;;4.20;99.90;;;;;;4913848;29;20187;-37
2023/12/31 01:54:25;;;;;;;13.88;12.88;;;4.10;99.90;;;;;;4915059;29;20680;-37
2023/12/31 01:56:51;;;;;;;13.55;12.45;;;4.10;99.90;;;;;;4918420;29;20665;-37
2023/12/31 01:59:17;;;;;;;14.40;13.40;;;4.10;99.90;;;;;;4923307;29;20198;-37
2023/12/31 02:01:45;;;;;;;13.20;12.20;;;4.00;99.90;;;;;;4918160;29;20193;-36
2023/12/31 02:04:11;;;;;;;15.07;13.80;;;4.00;99.90;;;;;;4914167;29;20609;-39
2023/12/31 02:06:38;;;;;;;15.07;13.77;;;3.90;99.90;;;;;;4914075;29;20229;-36
2023/12/31 02:09:05;;;;;;;14.30;13.10;;;3.90;99.90;;;;;;4916966;29;20191;-44
2023/12/31 02:11:31;;;;;;;14.65;13.45;;;3.80;99.90;;;;;;4914538;29;20221;-38
2023/12/31 02:13:57;;;;;;;14.63;13.50;;;3.80;99.90;;;;;;4917271;29;20601;-37
2023/12/31 02:16:24;;;;;;;14.13;13.13;;;3.80;99.90;;;;;;4915601;29;20649;-37
2023/12/31 02:18:49;;;;;;;16.35;14.80;;;3.80;99.90;;;;;;4919753;29;20276;-37
2023/12/31 02:21:15;;;;;;;13.60;12.63;;;3.80;99.90;;;;;;4906793;29;20194;-37
2023/12/31 02:23:41;;;;;;;14.53;13.40;;;3.80;99.90;;;;;;4913674;29;20206;-37
2023/12/31 02:26:09;;;;;;;14.48;13.25;;;3.80;99.90;;;;;;4914971;29;20273;-37
2023/12/31 02:28:35;;;;;;;13.85;12.90;;;3.90;99.90;;;;;;4914663;29;20182;-37
2023/12/31 02:31:01;;;;;;;15.40;14.07;;;3.90;99.90;;;;;;4929737;29;20757;-37
2023/12/31 02:33:26;;;;;;;14.60;13.13;;;3.90;99.90;;;;;;4920846;29;20667;-37
2023/12/31 02:35:52;;;;;;;13.43;12.43;;;4.00;99.90;;;;;;4920407;29;20190;-37
2023/12/31 02:38:17;;;;;;;14.60;13.40;;;4.00;99.90;;;;;;4914242;29;20198;-38
2023/12/31 02:40:43;;;;;;;15.30;13.90;;;4.10;99.90;;;;;;4926849;29;20190;-37
2023/12/31 02:43:09;;;;;;;14.70;13.40;;;4.10;99.90;;;;;;4915954;29;20198;-37
2023/12/31 02:45:35;;;;;;;14.80;13.60;;;4.10;99.90;;;;;;4915076;29;20971;-37
2023/12/31 02:48:01;;;;;;;14.43;13.32;;;4.20;99.90;;;;;;4920252;29;20221;-37
2023/12/31 02:50:26;;;;;;;13.97;12.97;;;4.20;99.90;;;;;;4927890;29;20216;-37
2023/12/31 02:52:53;;;;;;;14.47;13.47;;;4.30;99.90;;;;;;4927104;29;20185;-37
2023/12/31 02:55:20;;;;;;;14.15;12.93;;;4.40;99.90;;;;;;4921290;29;20198;-37
2023/12/31 02:57:45;;;;;;;14.80;13.70;;;4.40;99.90;;;;;;4918091;29;20196;-37
2023/12/31 03:00:11;;;;;;;14.57;13.20;;;4.50;99.90;;;;;;4918571;29;20190;-37
2023/12/31 03:02:37;;;;;;;14.65;13.55;;;4.60;99.90;;;;;;4922334;29;20190;-37
2023/12/31 03:05:03;;;;;;;14.33;12.93;;;4.60;99.90;;;;;;4918199;29;20187;-38
2023/12/31 03:07:29;;;;;;;14.60;13.40;;;4.60;99.90;;;;;;4918713;29;20182;-38
2023/12/31 03:09:54;;;;;;;14.20;13.30;;;4.70;99.90;;;;;;4913240;29;20442;-38
2023/12/31 03:12:42;;;;;;;14.27;13.10;;;4.80;99.90;;;;;;4913622;29;20269;-37
2023/12/31 03:15:09;;;;;;;15.27;13.88;;;4.80;99.90;;;;;;4922554;29;20182;-38
2023/12/31 03:17:34;;;;;;;14.38;13.18;;;4.90;99.90;;;;;;4919050;29;20270;-37
2023/12/31 03:20:00;;;;;;;14.40;13.30;;;5.00;99.90;;;;;;4916651;29;20264;-38
2023/12/31 03:22:26;;;;;;;14.90;13.70;;;5.10;99.90;;;;;;4920346;29;20190;-37
2023/12/31 03:24:51;;;;;;;14.10;13.00;;;5.20;99.90;;;;;;4913326;29;20194;-38
2023/12/31 03:27:17;;;;;;;14.53;13.33;;;5.20;99.90;;;;;;4910827;29;20588;-38
2023/12/31 03:29:42;;;;;;;15.03;13.53;;;5.30;99.90;;;;;;4923508;29;20269;-37
2023/12/31 03:32:09;;;;;;;13.80;12.70;;;5.30;99.90;;;;;;4916716;29;20774;-38
2023/12/31 03:34:35;;;;;;;14.90;13.70;;;5.30;99.90;;;;;;4912321;29;20199;-37
2023/12/31 03:37:00;;;;;;;14.50;13.50;;;5.40;99.90;;;;;;4912743;29;20213;-38
2023/12/31 03:39:26;;;;;;;14.90;13.87;;;5.40;99.90;;;;;;4918330;29;20241;-38
2023/12/31 03:41:52;;;;;;;15.30;13.93;;;5.40;99.90;;;;;;4919766;29;20278;-38
2023/12/31 03:44:17;;;;;;;14.40;13.30;;;5.50;99.90;;;;;;4915573;29;20186;-37
2023/12/31 03:46:44;;;;;;;14.93;13.63;;;5.50;99.90;;;;;;4907224;29;20466;-38
2023/12/31 03:49:09;;;;;;;13.98;13.07;;;5.50;99.90;;;;;;4915238;29;20298;-38
2023/12/31 03:51:35;;;;;;;14.40;13.30;;;5.50;99.90;;;;;;4917629;29;20324;-38
2023/12/31 03:54:01;;;;;;;14.73;13.73;;;5.50;99.90;;;;;;4918754;29;20198;-38
2023/12/31 03:56:26;;;;;;;15.10;13.90;;;5.50;99.90;;;;;;4926617;29;20217;-58
2023/12/31 03:58:52;;;;;;;14.73;13.40;;;5.50;99.90;;;;;;4921865;29;20182;-58
2023/12/31 04:01:18;;;;;;;14.90;13.50;;;5.50;99.90;;;;;;4929655;29;20186;-59
2023/12/31 04:03:44;;;;;;;14.93;13.93;;;5.50;99.90;;;;;;4921952;29;20189;-39
2023/12/31 04:06:10;;;;;;;14.20;13.20;;;5.50;99.90;;;;;;4929666;29;20695;-38
2023/12/31 04:08:35;;;;;;;14.53;13.43;;;5.60;99.90;;;;;;4941491;29;20360;-38
2023/12/31 04:11:01;;;;;;;14.73;13.33;;;5.60;99.90;;;;;;4920944;29;20196;-37
2023/12/31 04:13:28;;;;;;;14.77;13.27;;;5.60;99.90;;;;;;4940085;29;20536;-37
2023/12/31 04:15:53;;;;;;;14.23;13.23;;;5.60;99.90;;;;;;4924482;29;20201;-37
2023/12/31 04:18:19;;;;;;;15.10;13.90;;;5.60;99.90;;;;;;4926246;29;20549;-37
2023/12/31 04:20:44;;;;;;;14.83;13.80;;;5.60;99.90;;;;;;4928513;29;20197;-58
2023/12/31 04:23:10;;;;;;;13.77;12.57;;;5.60;99.90;;;;;;4925178;29;20230;-58
2023/12/31 04:25:36;;;;;;;14.73;13.63;;;5.60;99.90;;;;;;4928670;29;20217;-58
2023/12/31 04:28:01;;;;;;;15.20;14.00;;;5.60;99.90;;;;;;4930637;29;20197;-59
2023/12/31 04:30:27;;;;;;;13.57;12.67;;;5.60;99.90;;;;;;4930285;29;20562;-58
2023/12/31 04:32:53;;;;;;;13.90;12.90;;;5.60;99.90;;;;;;4944864;29;20652;-58
2023/12/31 04:35:18;;;;;;;14.43;13.40;;;5.60;99.90;;;;;;4931363;29;20194;-58
2023/12/31 04:37:44;;;;;;;13.90;12.87;;;5.60;99.90;;;;;;4931353;29;20293;-59
2023/12/31 04:40:10;;;;;;;14.20;13.20;;;5.60;99.90;;;;;;4931538;29;20185;-58
2023/12/31 04:42:36;;;;;;;13.80;12.90;;;5.60;99.90;;;;;;4951086;29;20189;-58
2023/12/31 04:45:07;;;;;;;14.83;13.73;;;5.60;99.90;;;;;;4950108;29;20198;-58
2023/12/31 04:47:33;;;;;;;14.65;13.68;;;5.60;99.90;;;;;;4943756;29;20656;-58
2023/12/31 04:49:58;;;;;;;13.43;12.53;;;5.60;99.90;;;;;;4915164;29;20234;-58
2023/12/31 04:52:24;;;;;;;14.17;13.07;;;5.60;99.90;;;;;;4931151;29;20517;-58
2023/12/31 04:54:51;;;;;;;13.50;12.50;;;5.60;99.90;;;;;;4931587;29;20186;-58
2023/12/31 04:57:16;;;;;;;13.13;12.27;;;5.50;99.90;;;;;;4921981;29;20713;-58
2023/12/31 04:59:42;;;;;;;14.13;13.23;;;5.50;99.90;;;;;;4925190;29;20198;-58
2023/12/31 05:02:07;;;;;;;14.27;13.20;;;5.50;99.90;;;;;;4929980;29;20182;-58
2023/12/31 05:04:33;;;;;;;13.57;12.67;;;5.50;99.90;;;;;;4926545;29;20672;-57
2023/12/31 05:06:59;;;;;;;13.67;12.77;;;5.50;99.90;;;;;;4941971;29;20228;-58
2023/12/31 05:09:25;;;;;;;14.57;13.57;;;5.50;99.90;;;;;;4930589;29;20189;-55
2023/12/31 05:11:50;;;;;;;14.13;13.13;;;5.50;99.90;;;;;;4932193;29;20587;-58
2023/12/31 05:14:16;;;;;;;13.93;12.90;;;5.50;99.90;;;;;;4923462;29;20186;-55
2023/12/31 05:16:42;;;;;;;14.63;13.40;;;5.50;99.90;;;;;;4926006;29;20194;-58
2023/12/31 05:19:08;;;;;;;12.67;11.87;;;5.50;99.90;;;;;;4935811;29;20193;-57
2023/12/31 05:21:33;;;;;;;13.73;12.73;;;5.40;99.90;;;;;;4954131;29;20190;-57
2023/12/31 05:24:00;;;;;;;12.70;11.80;;;5.40;99.90;;;;;;4949190;29;20189;-56
2023/12/31 05:26:26;;;;;;;13.82;12.82;;;5.40;99.90;;;;;;4944569;29;20516;-58
2023/12/31 05:28:52;;;;;;;13.68;12.77;;;5.40;99.90;;;;;;4936602;29;20181;-57
2023/12/31 05:31:18;;;;;;;13.25;12.35;;;5.40;99.90;;;;;;4927225;29;20193;-58
2023/12/31 05:33:44;;;;;;;13.33;12.43;;;5.40;99.90;;;;;;4927199;29;20210;-56
2023/12/31 05:36:11;;;;;;;13.48;12.48;;;5.40;99.90;;;;;;4925083;29;20182;-59
2023/12/31 05:38:36;;;;;;;12.20;11.35;;;5.40;99.90;;;;;;4945026;29;20185;-58
2023/12/31 05:41:02;;;;;;;12.90;12.00;;;5.40;99.90;;;;;;4936569;29;20244;-53
2023/12/31 05:43:27;;;;;;;12.80;12.00;;;5.40;99.90;;;;;;4933790;29;20198;-58
2023/12/31 05:45:53;;;;;;;14.30;13.20;;;5.40;99.90;;;;;;4933710;29;20626;-37
2023/12/31 05:48:19;;;;;;;13.50;12.70;;;5.40;99.90;;;;;;4936228;29;20229;-38
2023/12/31 05:50:46;;;;;;;13.97;12.93;;;5.40;99.90;;;;;;4945915;29;20287;-37
2023/12/31 05:53:12;;;;;;;13.02;12.02;;;5.40;99.90;;;;;;4938613;29;20331;-37
2023/12/31 05:55:37;;;;;;;12.90;12.03;;;5.40;99.90;;;;;;4934228;29;20262;-38
2023/12/31 05:58:03;;;;;;;13.77;12.87;;;5.40;99.90;;;;;;4932819;29;20574;-58
2023/12/31 06:00:29;;;;;;;12.53;11.63;;;5.40;99.90;;;;;;4932154;29;20225;-58
2023/12/31 06:02:55;;;;;;;13.90;12.47;;;5.40;99.90;;;;;;4928675;29;20221;-38
2023/12/31 06:05:21;;;;;;;13.55;12.55;;;5.50;99.90;;;;;;4924877;29;20201;-37
2023/12/31 06:07:46;;;;;;;13.60;12.60;;;5.50;99.90;;;;;;4931980;29;20579;-38
2023/12/31 06:10:12;;;;;;;13.00;12.10;;;5.50;99.90;;;;;;4928949;29;20261;-38
2023/12/31 06:12:38;;;;;;;13.20;12.20;;;5.50;99.90;;;;;;4928115;29;20626;-37
2023/12/31 06:15:06;;;;;;;13.40;12.40;;;5.50;99.90;;;;;;4920104;29;20511;-37
2023/12/31 06:17:37;;;;;;;14.27;13.25;;;5.50;99.90;;;;;;4933947;29;20204;-37
2023/12/31 06:20:06;;;;;;;14.75;13.55;;;5.50;99.90;;;;;;4922436;29;20676;-37
2023/12/31 06:22:32;;;;;;;13.63;12.73;;;5.50;99.90;;;;;;4949342;29;20200;-38
2023/12/31 06:24:58;;;;;;;14.20;13.13;;;5.50;99.90;;;;;;4949742;29;20204;-58
2023/12/31 06:27:24;;;;;;;13.50;12.50;;;5.50;99.90;;;;;;4932873;29;20648;-59
2023/12/31 06:29:50;;;;;;;14.33;13.03;;;5.50;99.90;;;;;;4924488;29;20189;-57
2023/12/31 06:32:17;;;;;;;12.73;11.93;;;5.50;99.90;;;;;;4931824;29;20261;-58
2023/12/31 06:34:43;;;;;;;13.75;12.65;;;5.60;99.90;;;;;;4938942;29;20181;-37
2023/12/31 06:37:08;;;;;;;13.93;12.87;;;5.50;99.90;;;;;;4933528;29;20193;-37
2023/12/31 06:39:34;;;;;;;13.67;12.57;;;5.50;99.90;;;;;;4927845;29;20683;-58
2023/12/31 06:41:59;;;;;;;14.80;13.60;;;5.50;99.90;;;;;;4926658;29;20257;-57
2023/12/31 06:44:26;;;;;;;14.80;13.80;;;5.50;99.90;;;;;;4933326;29;20193;-58
2023/12/31 06:46:51;;;;;;;14.65;13.57;;;5.50;99.90;;;;;;4927470;29;20241;-57
2023/12/31 06:49:17;;;;;;;14.53;13.53;;;5.50;99.90;;;;;;4920171;29;21059;-58
2023/12/31 06:51:43;;;;;;;14.13;13.10;;;5.50;99.90;;;;;;4933006;29;20516;-56
2023/12/31 06:54:08;;;;;;;14.63;13.60;;;5.50;99.90;;;;;;4952482;29;20687;-58
2023/12/31 06:56:34;;;;;;;15.20;14.03;;;5.50;99.90;;;;;;4920014;29;20337;-57
2023/12/31 06:59:00;;;;;;;14.50;13.33;;;5.40;99.90;;;;;;4910655;29;20703;-58
2023/12/31 07:01:25;;;;;;;14.90;13.80;;;5.50;99.90;;;;;;4921351;29;20174;-56
2023/12/31 07:03:51;;;;;;;14.17;13.07;;;5.50;99.90;;;;;;4909385;29;20197;-58
2023/12/31 07:06:17;;;;;;;14.47;13.17;;;5.50;99.90;;;;;;4906352;29;20214;-37
2023/12/31 07:08:42;;;;;;;13.47;12.57;;;5.50;99.90;;;;;;4909783;29;20729;-37
2023/12/31 07:11:08;;;;;;;14.90;13.90;;;5.50;99.90;;;;;;4904387;29;20268;-38
2023/12/31 07:13:33;;;;;;;13.80;12.70;;;5.50;99.90;;;;;;4898005;29;20194;-37
2023/12/31 07:16:00;;;;;;;14.77;13.67;;;5.50;99.90;;;;;;4911187;29;20182;-38
2023/12/31 07:18:25;;;;;;;14.75;13.73;;;5.50;99.90;;;;;;4917745;29;20194;-38
2023/12/31 07:20:55;;;;;;;15.10;13.90;;;5.50;99.90;;;;;;5135625;23;20239;-35
2023/12/31 07:23:21;;;;;;;13.70;12.80;;;5.50;99.90;;;;;;4980482;28;20180;-36
2023/12/31 07:25:47;;;;;;;14.70;13.60;;;5.50;99.90;;;;;;4987140;28;20211;-36
2023/12/31 07:28:13;;;;;;;14.80;13.80;;;5.50;99.90;;;;;;4967053;28;20188;-37
2023/12/31 07:30:43;;;;;;;14.60;13.17;;;5.50;99.90;;;;;;4970030;28;20215;-37
2023/12/31 07:33:09;;;;;;;13.73;12.65;;;5.60;99.90;;;;;;4983303;28;20168;-36
2023/12/31 07:35:36;;;;;;;12.93;12.10;;;5.60;99.90;;;;;;4973702;28;20222;-37
2023/12/31 07:38:03;;;;;;;13.88;12.90;;;5.60;99.90;;;;;;4987354;28;20184;-36
2023/12/31 07:40:29;;;;;;;15.35;14.05;;;5.70;99.90;;;;;;4964378;28;20187;-36
2023/12/31 07:42:55;;;;;;;14.07;13.07;;;5.70;99.90;;;;;;4977989;28;20768;-35
2023/12/31 07:45:21;;;;;;;14.13;13.03;;;5.80;99.90;;;;;;4981174;28;20190;-35
2023/12/31 07:47:47;;;;;;;14.00;13.10;;;5.80;99.90;;;;;;4981608;28;20198;-36
2023/12/31 07:50:13;;;;;;;14.20;13.20;;;5.90;99.90;;;;;;4978117;28;20181;-35
2023/12/31 07:52:38;;;;;;;13.73;12.57;;;6.00;99.90;;;;;;4980216;28;20194;-37
2023/12/31 07:55:08;;;;;;;13.83;12.97;;;6.00;99.90;;;;;;4990841;28;20271;-36
2023/12/31 07:57:34;;;;;;;14.02;13.02;;;6.10;99.90;;;;;;4991109;28;20175;-37
2023/12/31 08:00:00;;;;;;;13.37;12.47;;;6.10;99.90;;;;;;4991773;28;20815;-37
2023/12/31 08:02:25;;;;;;;13.87;12.90;;;6.20;99.90;;;;;;4986515;28;20469;-36
2023/12/31 08:04:51;;;;;;;14.20;13.00;;;6.30;99.90;;;;;;4981084;28;20188;-37
2023/12/31 08:07:16;;;;;;;12.47;11.37;;;6.40;99.90;;;;;;4977967;28;20208;-52
2023/12/31 08:09:42;;;;;;;12.63;11.80;;;6.50;99.90;;;;;;4994115;28;20233;-55
2023/12/31 08:12:08;;;;;;;13.90;12.80;;;6.60;99.90;;;;;;4993721;28;20176;-36
2023/12/31 08:14:33;;;;;;;13.80;12.90;;;6.70;99.90;;;;;;4986665;28;20191;-55
2023/12/31 08:16:59;;;;;;;14.53;13.37;;;6.80;99.90;;;;;;4981919;28;20191;-54
2023/12/31 08:19:25;;;;;;;13.40;12.47;;;7.00;99.90;;;;;;4979514;28;20264;-54
2023/12/31 08:21:50;;;;;;;14.23;13.13;;;7.20;99.90;;;;;;4972490;28;21106;-55
2023/12/31 08:24:20;;;;;;;14.83;13.83;;;7.40;99.90;;;;;;4966738;28;20223;-55
2023/12/31 08:26:46;;;;;;;15.10;13.80;;;7.60;99.90;;;;;;4974425;28;20203;-35
2023/12/31 08:29:11;;;;;;;13.70;12.73;;;7.70;99.90;;;;;;4973283;28;20424;-53
2023/12/31 08:31:37;;;;;;;15.00;13.90;;;7.90;99.90;;;;;;4965035;28;21032;-52
2023/12/31 08:34:03;;;;;;;13.37;12.57;;;8.00;99.90;;;;;;4973478;28;21025;-55
2023/12/31 08:36:29;;;;;;;13.97;13.07;;;8.20;99.90;;;;;;4968615;28;20222;-55
2023/12/31 08:38:55;;;;;;;14.30;13.20;;;8.30;99.90;;;;;;4941267;28;21572;-55
2023/12/31 08:41:21;;;;;;;14.20;13.20;;;8.30;99.90;;;;;;4969833;28;20712;-44
2023/12/31 08:43:47;;;;;;;13.13;12.13;;;8.30;99.90;;;;;;4971164;28;20431;-57
2023/12/31 08:46:13;;;;;;;14.03;13.13;;;8.30;99.90;;;;;;4957839;28;20208;-52
2023/12/31 08:48:38;;;;;;;13.60;12.73;;;8.30;99.90;;;;;;4969850;28;20765;-48
2023/12/31 08:51:04;;;;;;;13.63;12.70;;;8.20;99.90;;;;;;4979077;28;21248;-49
2023/12/31 08:53:30;;;;;;;14.30;13.20;;;8.20;99.90;;;;;;4973267;28;20211;-54
2023/12/31 08:55:55;;;;;;;14.03;13.10;;;8.20;99.90;;;;;;4969038;28;20492;-56
2023/12/31 08:58:21;;;;;;;13.67;12.70;;;8.20;99.90;;;;;;4962549;28;20199;-56
2023/12/31 09:00:47;;;;;;;13.73;12.83;;;8.10;99.90;;;;;;4965820;28;20183;-56
2023/12/31 09:03:12;;;;;;;15.57;14.47;;;8.10;99.90;;;;;;4970740;28;20198;-55
2023/12/31 09:05:38;;;;;;;14.53;13.43;;;8.10;99.90;;;;;;4971422;28;20207;-53
2023/12/31 09:08:04;;;;;;;14.63;13.63;;;8.20;99.90;;;;;;4961928;28;20898;-53
2023/12/31 09:10:30;;;;;;;15.13;14.00;;;8.50;99.90;;;;;;4967659;28;20231;-55
2023/12/31 09:12:55;;;;;;;13.20;12.33;;;8.70;99.90;;;;;;4965711;28;20430;-52
2023/12/31 09:15:22;;;;;;;13.53;12.53;;;9.00;99.90;;;;;;4949402;28;20235;-51
2023/12/31 09:17:47;;;;;;;12.93;12.03;;;9.00;99.90;;;;;;4965518;28;20262;-56
2023/12/31 09:20:13;;;;;;;15.30;13.77;;;9.00;99.90;;;;;;4960996;28;20475;-36
2023/12/31 09:22:39;;;;;;;15.37;13.97;;;9.00;99.90;;;;;;4957546;28;20211;-35
2023/12/31 09:25:08;;;;;;;15.17;14.13;;;9.00;99.90;;;;;;4963313;28;20426;-36
2023/12/31 09:27:34;;;;;;;13.37;12.43;;;8.90;99.90;;;;;;4951039;28;20420;-36
2023/12/31 09:30:00;;;;;;;14.93;13.93;;;9.00;99.90;;;;;;4961924;28;20523;-35
2023/12/31 09:32:26;;;;;;;13.80;12.80;;;8.90;99.90;;;;;;4958788;28;20440;-36
2023/12/31 09:34:52;;;;;;;13.30;12.50;;;9.00;99.90;;;;;;4964929;28;20254;-36
2023/12/31 09:37:19;;;;;;;13.53;12.53;;;9.00;99.90;;;;;;4960132;28;20483;-36
2023/12/31 09:39:48;;;;;;;14.57;13.47;;;9.30;99.90;;;;;;4957376;28;20536;-36
2023/12/31 09:42:18;;;;;;;13.90;12.97;;;9.50;99.90;;;;;;4965187;28;20412;-36
2023/12/31 09:44:44;;;;;;;14.70;13.60;;;9.70;99.90;;;;;;4956923;28;20444;-36
2023/12/31 09:47:11;;;;;;;13.37;12.47;;;9.90;99.30;;;;;;4959653;28;21095;-36
2023/12/31 09:49:38;;;;;;;12.80;11.90;;;10.00;97.90;;;;;;4962871;28;20450;-36
2023/12/31 09:52:05;;;;;;;14.23;13.20;;;10.30;97.40;;;;;;4955693;28;20416;-53
2023/12/31 09:54:32;;;;;;;13.60;12.60;;;10.30;96.40;;;;;;4953184;28;20432;-52
2023/12/31 09:56:58;;;;;;;13.80;12.80;;;10.20;95.90;;;;;;4956198;28;20730;-50
2023/12/31 09:59:26;;;;;;;13.90;13.00;;;10.10;96.00;;;;;;4961331;28;20538;-54
2023/12/31 10:01:58;;;;;;;13.17;12.37;;;10.00;96.00;;;;;;4965531;28;21156;-51
2023/12/31 10:04:24;;;;;;;14.07;13.17;;;10.00;96.60;;;;;;4963984;28;20432;-51
2023/12/31 10:06:51;;;;;;;14.27;13.37;;;9.90;97.50;;;;;;4964791;28;20467;-56
2023/12/31 10:09:19;;;;;;;13.63;12.73;;;9.70;97.80;;;;;;4954884;28;20436;-55
2023/12/31 10:11:46;;;;;;;13.17;12.37;;;9.40;97.90;;;;;;4970462;28;20545;-53
2023/12/31 10:14:12;;;;;;;13.10;12.20;;;9.50;98.70;;;;;;4962172;28;20420;-55
2023/12/31 10:16:43;;;;;;;14.27;13.23;;;9.40;99.70;;;;;;4957992;28;20435;-35
2023/12/31 10:19:12;;;;;;;14.00;13.10;;;9.40;99.30;;;;;;4962372;28;20443;-36
2023/12/31 10:21:39;;;;;;;14.17;13.30;;;9.40;99.90;;;;;;4980090;28;20462;-36
2023/12/31 10:24:05;;;;;;;13.67;12.70;;;9.40;99.90;;;;;;4987656;28;20423;-36
2023/12/31 10:26:31;;;;;;;13.43;12.43;;;9.40;99.90;;;;;;4983641;28;20471;-36
2023/12/31 10:28:57;;;;;;;13.30;12.40;;;9.50;99.90;;;;;;4986738;28;20955;-35
2023/12/31 10:31:25;;;;;;;13.50;12.70;;;9.50;99.90;;;;;;4988144;28;20886;-53
2023/12/31 10:33:50;;;;;;;13.30;12.50;;;9.60;99.90;;;;;;4988742;28;20179;-56
2023/12/31 10:36:21;;;;;;;13.50;12.60;;;9.70;99.90;;;;;;4983957;28;20507;-52
2023/12/31 10:38:48;;;;;;;13.97;13.07;;;10.00;99.20;;;;;;4986699;28;20176;-50
2023/12/31 10:41:24;;;;;;;13.03;12.20;;;10.30;98.60;;;;;;4984071;28;20480;-55
2023/12/31 10:43:51;;;;;;;13.70;12.70;;;10.50;97.40;;;;;;4986136;28;20428;-56
2023/12/31 10:46:18;;;;;;;13.10;12.30;;;10.90;96.90;;;;;;4967015;28;20466;-54
2023/12/31 10:49:11;;;;;;;13.40;12.60;;;11.30;95.50;;;;;;4990726;28;20469;-54
2023/12/31 10:51:41;;;;;;;13.03;12.23;;;11.50;94.30;;;;;;4988706;28;20434;-53
2023/12/31 10:54:11;;;;;;;13.20;12.30;;;11.60;94.00;;;;;;4991930;28;20532;-55
2023/12/31 10:56:40;;;;;;;13.40;12.60;;;11.80;93.20;;;;;;4984313;28;20448;-55
2023/12/31 10:59:06;;;;;;;13.00;12.20;;;12.00;93.00;;;;;;4961598;28;20454;-55
2023/12/31 11:01:33;;;;;;;13.30;12.40;;;12.20;92.40;;;;;;4981479;28;20427;-54
2023/12/31 11:04:01;;;;;;;13.43;12.50;;;12.40;91.80;;;;;;4993610;28;21137;-49
2023/12/31 11:06:28;;;;;;;13.20;12.33;;;12.50;90.90;;;;;;4984103;28;20478;-53
2023/12/31 11:08:53;;;;;;;13.97;13.03;;;12.40;90.90;;;;;;4972524;28;20463;-53
2023/12/31 11:11:19;;;;;;;14.10;13.20;;;12.30;90.80;;;;;;4983381;28;20757;-55
2023/12/31 11:13:50;;;;;;;13.50;12.60;;;11.90;90.80;;;;;;4982512;28;20184;-50
2023/12/31 11:16:34;;;;;;;13.60;12.80;;;11.70;91.80;;;;;;4972284;28;20430;-53
2023/12/31 11:19:28;;;;;;;13.70;12.80;;;11.50;92.50;;;;;;4980833;28;20450;-52
2023/12/31 11:22:20;;;;;;;13.57;12.70;;;11.30;93.00;;;;;;4988353;28;20501;-53
2023/12/31 11:24:47;;;;;;;13.90;13.10;;;11.20;93.50;;;;;;4984501;28;20480;-51
2023/12/31 11:27:16;;;;;;;13.53;12.73;;;11.00;94.00;;;;;;4982930;28;20561;-53
2023/12/31 11:29:43;;;;;;;13.40;12.50;;;10.90;94.70;;;;;;4994075;28;20438;-55
2023/12/31 11:32:09;;;;;;;13.10;12.27;;;10.90;95.10;;;;;;4979171;28;20973;-54
2023/12/31 11:34:38;;;;;;;12.80;12.00;;;10.80;95.40;;;;;;4991178;28;20429;-36
2023/12/31 11:37:05;;;;;;;12.30;11.50;;;10.70;95.70;;;;;;4982193;28;20229;-35
2023/12/31 11:39:31;;;;;;;13.77;12.97;;;10.50;95.70;;;;;;4997690;28;20469;-35
2023/12/31 11:42:07;;;;;;;13.07;12.27;;;10.50;95.90;;;;;;4986135;28;20422;-35
2023/12/31 11:44:35;;;;;;;13.93;13.03;;;10.40;96.40;;;;;;4989774;28;20185;-35
2023/12/31 11:47:01;;;;;;;12.60;11.80;;;10.30;96.50;;;;;;4980164;28;20555;-35
2023/12/31 11:49:27;;;;;;;12.50;11.80;;;10.20;96.90;;;;;;4981369;28;20895;-36
2023/12/31 11:52:01;;;;;;;12.10;11.33;;;10.30;97.10;;;;;;4974116;28;20981;-35
2023/12/31 11:54:32;;;;;;;13.00;12.13;;;10.20;97.50;;;;;;4981709;28;20170;-35
2023/12/31 11:56:59;;;;;;;12.20;11.50;;;9.90;97.80;;;;;;4979308;28;20438;-35
2023/12/31 11:59:26;;;;;;;13.40;12.60;;;9.90;98.60;;;;;;4982606;28;20461;-35
2023/12/31 12:01:53;;;;;;;12.63;11.73;;;9.90;98.70;;;;;;4985171;28;21027;-35
2023/12/31 12:04:19;;;;;;;12.10;11.20;;;9.80;98.70;;;;;;4991300;28;20935;-36
2023/12/31 12:06:46;;;;;;;12.23;11.43;;;9.80;98.80;;;;;;4985525;28;20523;-35
2023/12/31 12:09:11;;;;;;;11.90;11.20;;;9.80;99.20;;;;;;4981572;28;20474;-36
2023/12/31 12:11:43;;;;;;;13.10;12.17;;;9.60;99.40;;;;;;4962630;28;20787;-35
2023/12/31 12:14:10;;;;;;;12.20;11.40;;;9.50;99.90;;;;;;4980633;28;20413;-35
2023/12/31 12:16:38;;;;;;;13.17;12.27;;;9.60;99.90;;;;;;4982082;28;20953;-35
2023/12/31 12:19:05;;;;;;;12.73;11.93;;;9.60;99.90;;;;;;4980718;28;20453;-35
2023/12/31 12:21:31;;;;;;;13.90;12.90;;;9.50;99.90;;;;;;4989991;28;20481;-35
2023/12/31 12:23:57;;;;;;;12.77;11.97;;;9.50;99.90;;;;;;4968045;28;20431;-35
2023/12/31 12:26:25;;;;;;;12.27;11.57;;;9.50;99.90;;;;;;4988973;28;20463;-37
2023/12/31 12:28:53;;;;;;;12.90;12.10;;;9.40;99.90;;;;;;4981283;28;20421;-37
2023/12/31 12:31:18;;;;;;;12.00;11.20;;;9.20;99.90;;;;;;4997338;28;20406;-54